createdAt,value
2023-04-15T00:00:59.586Z,5.57
2023-04-15T00:03:30.985Z,6.00
2023-04-15T00:05:59.999Z,7.37
2023-04-15T00:08:28.890Z,5.83
2023-04-15T00:10:59.479Z,6.03
2023-04-15T00:13:29.669Z,5.20
2023-04-15T00:15:58.238Z,5.17
2023-04-15T00:18:26.927Z,5.37
2023-04-15T00:20:55.402Z,5.60
2023-04-15T00:23:23.756Z,5.80
2023-04-15T00:25:52.334Z,4.60
2023-04-15T00:28:21.683Z,5.00
2023-04-15T00:30:51.929Z,6.97
2023-04-15T00:33:20.661Z,4.33
2023-04-15T00:35:49.102Z,4.13
2023-04-15T00:38:17.799Z,6.47
2023-04-15T00:40:46.344Z,3.60
2023-04-15T00:43:14.950Z,5.00
2023-04-15T00:45:43.531Z,5.77
2023-04-15T00:48:14.080Z,4.70
2023-04-15T00:50:42.478Z,4.50
2023-04-15T00:53:10.941Z,3.93
2023-04-15T00:55:39.477Z,5.83
2023-04-15T00:58:08.186Z,6.07
2023-04-15T01:00:36.684Z,7.03
2023-04-15T01:03:05.223Z,7.77
2023-04-15T01:05:35.654Z,8.73
2023-04-15T01:08:04.604Z,6.47
2023-04-15T01:10:33.217Z,6.57
2023-04-15T01:13:02.069Z,7.03
2023-04-15T01:15:30.746Z,9.40
2023-04-15T01:17:59.785Z,5.80
2023-04-15T01:20:28.666Z,6.90
2023-04-15T01:22:59.008Z,8.33
2023-04-15T01:25:33.357Z,4.83
2023-04-15T01:28:02.283Z,5.53
2023-04-15T01:30:30.814Z,6.73
2023-04-15T01:32:59.356Z,5.47
2023-04-15T01:35:28.413Z,4.50
2023-04-15T01:37:58.287Z,6.20
2023-04-15T01:40:26.702Z,5.73
2023-04-15T01:42:56.692Z,5.07
2023-04-15T01:45:25.169Z,5.37
2023-04-15T01:47:54.349Z,5.57
2023-04-15T01:50:23.219Z,5.73
2023-04-15T01:52:52.148Z,7.43
2023-04-15T01:55:20.411Z,5.53
2023-04-15T01:57:48.871Z,5.97
2023-04-15T02:00:18.841Z,6.07
2023-04-15T02:02:47.505Z,5.63
2023-04-15T02:05:16.185Z,5.67
2023-04-15T02:07:44.493Z,5.07
2023-04-15T02:10:13.680Z,7.80
2023-04-15T02:12:42.224Z,7.13
2023-04-15T02:15:11.288Z,6.90
2023-04-15T02:17:41.144Z,4.90
2023-04-15T02:20:10.716Z,6.33
2023-04-15T02:22:39.238Z,8.37
2023-04-15T02:25:08.312Z,5.27
2023-04-15T02:27:37.664Z,4.87
2023-04-15T02:30:07.356Z,6.67
2023-04-15T02:32:35.902Z,7.73
2023-04-15T02:35:06.682Z,6.40
2023-04-15T02:37:37.085Z,5.67
2023-04-15T02:40:05.750Z,5.77
2023-04-15T02:42:34.209Z,8.60
2023-04-15T02:45:02.299Z,4.87
2023-04-15T02:47:30.843Z,4.60
2023-04-15T02:50:01.067Z,5.23
2023-04-15T02:52:31.192Z,8.13
2023-04-15T02:55:00.815Z,7.83
2023-04-15T02:57:29.709Z,6.23
2023-04-15T02:59:58.119Z,5.27
2023-04-15T03:02:26.425Z,7.70
2023-04-15T03:04:55.251Z,8.07
2023-04-15T03:07:23.709Z,5.30
2023-04-15T03:09:53.621Z,5.90
2023-04-15T03:12:21.969Z,7.13
2023-04-15T03:14:50.387Z,6.80
2023-04-15T03:17:18.813Z,7.50
2023-04-15T03:19:47.278Z,7.90
2023-04-15T03:22:15.850Z,7.07
2023-04-15T03:24:44.263Z,5.20
2023-04-15T03:27:14.005Z,5.63
2023-04-15T03:29:42.473Z,5.87
2023-04-15T03:32:10.814Z,5.13
2023-04-15T03:34:39.191Z,4.17
2023-04-15T03:37:09.119Z,5.43
2023-04-15T03:39:37.663Z,6.83
2023-04-15T03:42:06.191Z,4.60
2023-04-15T03:44:36.195Z,2.50
2023-04-15T03:47:04.597Z,4.67
2023-04-15T03:49:33.003Z,6.07
2023-04-15T03:52:01.476Z,4.73
2023-04-15T03:54:30.085Z,5.70
2023-04-15T03:56:58.398Z,5.73
2023-04-15T03:59:26.795Z,7.77
2023-04-15T04:01:56.672Z,5.93
2023-04-15T04:04:25.385Z,4.67
2023-04-15T04:06:53.973Z,4.67
2023-04-15T04:09:22.332Z,5.07
2023-04-15T04:11:50.808Z,4.73
2023-04-15T04:14:19.219Z,5.80
2023-04-15T04:16:48.156Z,5.53
2023-04-15T04:19:19.951Z,4.43
2023-04-15T04:21:48.316Z,4.50
2023-04-15T04:24:16.916Z,5.70
2023-04-15T04:26:45.373Z,3.97
2023-04-15T04:29:13.868Z,4.80
2023-04-15T04:31:42.316Z,10.50
2023-04-15T04:34:10.899Z,4.90
2023-04-15T04:36:40.668Z,6.60
2023-04-15T04:39:09.807Z,6.50
2023-04-15T04:41:38.324Z,6.83
2023-04-15T04:44:07.152Z,6.10
2023-04-15T04:46:35.519Z,8.47
2023-04-15T04:49:04.061Z,6.50
2023-04-15T04:51:32.990Z,6.53
2023-04-15T04:54:03.665Z,7.73
2023-04-15T04:56:34.288Z,7.10
2023-04-15T04:59:03.012Z,7.50
2023-04-15T05:01:31.652Z,7.17
2023-04-15T05:04:00.812Z,4.77
2023-04-15T05:06:30.638Z,7.47
2023-04-15T05:08:59.777Z,7.60
2023-04-15T05:11:31.747Z,8.57
2023-04-15T05:14:02.210Z,7.80
2023-04-15T05:16:30.790Z,7.60
2023-04-15T05:18:58.994Z,6.60
2023-04-15T05:21:27.777Z,7.83
2023-04-15T05:23:56.380Z,11.67
2023-04-15T05:26:24.988Z,6.57
2023-04-15T05:28:55.129Z,7.73
2023-04-15T05:31:23.712Z,8.33
2023-04-15T05:33:52.175Z,7.53
2023-04-15T05:36:21.437Z,8.70
2023-04-15T05:38:49.916Z,8.47
2023-04-15T05:41:19.907Z,6.70
2023-04-15T05:43:48.455Z,7.30
2023-04-15T05:46:18.370Z,10.00
2023-04-15T05:48:47.035Z,7.80
2023-04-15T05:51:15.581Z,7.13
2023-04-15T05:53:44.084Z,9.63
2023-04-15T05:56:12.409Z,9.50
2023-04-15T05:58:41.130Z,8.03
2023-04-15T06:01:09.607Z,10.10
2023-04-15T06:03:39.993Z,8.60
2023-04-15T06:06:08.782Z,8.17
2023-04-15T06:08:37.324Z,11.53
2023-04-15T06:11:05.980Z,8.13
2023-04-15T06:13:34.998Z,7.27
2023-04-15T06:16:04.095Z,8.33
2023-04-15T06:18:32.699Z,10.00
2023-04-15T06:21:02.363Z,8.07
2023-04-15T06:23:32.149Z,7.70
2023-04-15T06:26:01.143Z,8.83
2023-04-15T06:28:30.813Z,9.17
2023-04-15T06:30:59.223Z,10.33
2023-04-15T06:33:27.893Z,7.87
2023-04-15T06:35:56.249Z,12.30
2023-04-15T06:38:26.505Z,9.00
2023-04-15T06:40:54.994Z,10.23
2023-04-15T06:43:23.429Z,8.97
2023-04-15T06:45:53.246Z,10.40
2023-04-15T06:48:27.889Z,9.17
2023-04-15T06:50:58.464Z,11.87
2023-04-15T06:53:28.552Z,14.10
2023-04-15T06:55:56.955Z,12.80
2023-04-15T06:58:25.826Z,10.47
2023-04-15T07:00:56.086Z,12.27
2023-04-15T07:03:24.488Z,11.20
2023-04-15T07:05:53.539Z,12.77
2023-04-15T07:08:22.258Z,12.33
2023-04-15T07:10:52.357Z,12.60
2023-04-15T07:13:21.060Z,12.40
2023-04-15T07:15:49.682Z,12.13
2023-04-15T07:18:18.079Z,14.37
2023-04-15T07:20:48.100Z,14.27
2023-04-15T07:23:16.595Z,15.20
2023-04-15T07:25:45.047Z,12.47
2023-04-15T07:28:15.252Z,12.87
2023-04-15T07:30:43.635Z,10.93
2023-04-15T07:33:12.412Z,11.93
2023-04-15T07:35:40.822Z,12.87
2023-04-15T07:38:09.229Z,13.90
2023-04-15T07:40:37.702Z,11.80
2023-04-15T07:43:06.228Z,13.13
2023-04-15T07:45:36.367Z,13.97
2023-04-15T07:48:05.019Z,14.17
2023-04-15T07:50:33.572Z,12.47
2023-04-15T07:53:02.442Z,13.57
2023-04-15T07:55:31.085Z,13.30
2023-04-15T07:57:59.767Z,12.23
2023-04-15T08:00:28.217Z,14.30
2023-04-15T08:02:59.677Z,16.20
2023-04-15T08:05:28.237Z,14.77
2023-04-15T08:07:56.560Z,13.47
2023-04-15T08:10:25.043Z,15.07
2023-04-15T08:12:54.484Z,15.23
2023-04-15T08:15:23.586Z,12.53
2023-04-15T08:17:51.806Z,10.87
2023-04-15T08:20:21.523Z,12.57
2023-04-15T08:22:52.145Z,12.43
2023-04-15T08:25:21.597Z,12.63
2023-04-15T08:27:50.207Z,10.77
2023-04-15T08:30:18.622Z,12.37
2023-04-15T08:32:48.324Z,18.27
2023-04-15T08:35:16.601Z,13.00
2023-04-15T08:37:46.395Z,14.97
2023-04-15T08:40:14.972Z,14.37
2023-04-15T08:42:44.915Z,16.33
2023-04-15T08:45:14.020Z,16.27
2023-04-15T08:47:42.531Z,11.77
2023-04-15T08:50:12.206Z,12.00
2023-04-15T08:52:40.758Z,10.33
2023-04-15T08:55:11.680Z,13.63
2023-04-15T08:57:40.123Z,12.47
2023-04-15T09:00:09.431Z,12.70
2023-04-15T09:02:38.088Z,14.97
2023-04-15T09:05:07.890Z,14.63
2023-04-15T09:07:36.672Z,11.40
2023-04-15T09:10:06.591Z,12.90
2023-04-15T09:12:37.656Z,12.47
2023-04-15T09:15:06.614Z,14.83
2023-04-15T09:17:35.646Z,13.70
2023-04-15T09:20:10.797Z,14.03
2023-04-15T09:22:39.941Z,10.87
2023-04-15T09:25:27.930Z,11.73
2023-04-15T09:27:58.423Z,12.47
2023-04-15T09:30:27.037Z,12.20
2023-04-15T09:32:56.622Z,11.40
2023-04-15T09:35:25.631Z,12.17
2023-04-15T09:37:54.391Z,10.97
2023-04-15T09:40:35.954Z,16.50
2023-04-15T09:43:06.631Z,14.47
2023-04-15T09:45:35.818Z,11.50
2023-04-15T09:48:17.278Z,10.90
2023-04-15T09:50:46.022Z,10.83
2023-04-15T09:53:17.839Z,13.50
2023-04-15T09:55:47.081Z,13.27
2023-04-15T09:58:24.429Z,15.17
2023-04-15T10:00:53.710Z,11.53
2023-04-15T10:03:23.127Z,8.53
2023-04-15T10:05:52.967Z,12.37
2023-04-15T10:08:25.138Z,9.47
2023-04-15T10:10:53.802Z,11.63
2023-04-15T10:13:24.402Z,13.07
2023-04-15T10:15:56.991Z,11.53
2023-04-15T10:18:27.982Z,11.30
2023-04-15T10:20:56.699Z,12.73
2023-04-15T10:23:25.854Z,14.57
2023-04-15T10:25:54.954Z,16.30
2023-04-15T10:28:24.735Z,13.33
2023-04-15T10:30:53.889Z,13.43
2023-04-15T10:33:24.167Z,13.13
2023-04-15T10:35:54.887Z,13.10
2023-04-15T10:38:37.433Z,11.60
2023-04-15T10:41:23.719Z,12.13
2023-04-15T10:43:54.583Z,13.00
2023-04-15T10:46:29.228Z,16.13
2023-04-15T10:48:57.804Z,11.77
2023-04-15T10:51:31.593Z,12.60
2023-04-15T10:54:01.186Z,12.13
2023-04-15T10:56:31.427Z,14.53
2023-04-15T10:59:02.696Z,11.00
2023-04-15T11:01:50.024Z,14.00
2023-04-15T11:04:43.213Z,13.60
2023-04-15T11:07:11.371Z,11.67
2023-04-15T11:09:39.764Z,15.13
2023-04-15T11:12:09.811Z,12.93
2023-04-15T11:14:43.363Z,10.70
2023-04-15T11:17:11.908Z,11.93
2023-04-15T11:19:40.896Z,12.03
2023-04-15T11:22:10.096Z,14.10
2023-04-15T11:24:38.406Z,11.93
2023-04-15T11:27:07.281Z,11.40
2023-04-15T11:29:35.957Z,11.53
2023-04-15T11:32:10.422Z,13.37
2023-04-15T11:34:39.019Z,10.10
2023-04-15T11:37:08.017Z,12.10
2023-04-15T11:39:36.635Z,15.20
2023-04-15T11:42:05.280Z,11.67
2023-04-15T11:44:33.740Z,14.27
2023-04-15T11:47:02.125Z,12.90
2023-04-15T11:49:33.992Z,13.23
2023-04-15T11:52:02.533Z,13.53
2023-04-15T11:54:30.970Z,11.27
2023-04-15T11:57:00.203Z,13.63
2023-04-15T11:59:38.956Z,11.53
2023-04-15T12:02:14.364Z,10.10
2023-04-15T12:04:44.189Z,10.87
2023-04-15T12:07:12.802Z,10.10
2023-04-15T12:09:43.104Z,10.37
2023-04-15T12:12:12.555Z,8.97
2023-04-15T12:14:42.366Z,12.23
2023-04-15T12:17:13.271Z,11.53
2023-04-15T12:19:45.445Z,10.13
2023-04-15T12:22:15.256Z,12.00
2023-04-15T12:24:47.057Z,9.77
2023-04-15T12:27:16.598Z,10.83
2023-04-15T12:29:45.589Z,9.10
2023-04-15T12:32:15.110Z,9.97
2023-04-15T12:34:51.904Z,9.50
2023-04-15T12:37:20.577Z,10.07
2023-04-15T12:39:50.214Z,9.63
2023-04-15T12:42:19.275Z,9.37
2023-04-15T12:44:48.054Z,11.20
2023-04-15T12:47:16.519Z,8.67
2023-04-15T12:49:46.140Z,10.63
2023-04-15T12:52:15.097Z,11.37
2023-04-15T12:54:43.148Z,9.90
2023-04-15T12:57:11.480Z,9.10
2023-04-15T12:59:39.972Z,8.17
2023-04-15T13:02:08.932Z,8.63
2023-04-15T13:04:37.670Z,7.67
2023-04-15T13:07:07.483Z,11.50
2023-04-15T13:09:36.001Z,7.10
2023-04-15T13:12:05.425Z,7.63
2023-04-15T13:14:33.918Z,6.70
2023-04-15T13:17:02.859Z,6.97
2023-04-15T13:19:31.460Z,6.77
2023-04-15T13:21:59.775Z,8.07
2023-04-15T13:24:29.311Z,6.53
2023-04-15T13:26:59.237Z,6.53
2023-04-15T13:29:27.690Z,8.47
2023-04-15T13:31:56.250Z,9.30
2023-04-15T13:34:24.716Z,6.23
2023-04-15T13:36:53.343Z,6.93
2023-04-15T13:39:21.708Z,8.00
2023-04-15T13:41:51.253Z,6.93
2023-04-15T13:44:21.486Z,8.10
2023-04-15T13:46:50.700Z,7.33
2023-04-15T13:49:19.223Z,6.53
2023-04-15T13:51:47.538Z,8.07
2023-04-15T13:54:15.668Z,6.67
2023-04-15T13:56:44.123Z,6.93
2023-04-15T13:59:15.203Z,7.70
2023-04-15T14:01:44.976Z,6.93
2023-04-15T14:04:13.290Z,7.43
2023-04-15T14:06:41.778Z,7.63
2023-04-15T14:09:10.134Z,7.13
2023-04-15T14:11:40.486Z,7.63
2023-04-15T14:14:08.951Z,7.57
2023-04-15T14:16:38.591Z,7.50
2023-04-15T14:19:07.372Z,7.87
2023-04-15T14:21:36.149Z,7.97
2023-04-15T14:24:04.546Z,7.13
2023-04-15T14:26:33.021Z,7.07
2023-04-15T14:29:01.385Z,6.23
2023-04-15T14:31:29.780Z,6.97
2023-04-15T14:33:59.572Z,7.40
2023-04-15T14:36:28.490Z,8.00
2023-04-15T14:38:56.988Z,6.70
2023-04-15T14:41:25.474Z,7.30
2023-04-15T14:43:53.902Z,7.10
2023-04-15T14:46:22.385Z,7.47
2023-04-15T14:48:51.103Z,7.17
2023-04-15T14:51:21.019Z,7.57
2023-04-15T14:53:49.401Z,7.23
2023-04-15T14:56:17.552Z,7.70
2023-04-15T14:58:45.838Z,9.60
2023-04-15T15:01:14.417Z,7.60
2023-04-15T15:03:43.269Z,7.43
2023-04-15T15:06:11.947Z,8.07
2023-04-15T15:08:41.417Z,8.17
2023-04-15T15:11:10.124Z,7.87
2023-04-15T15:13:38.467Z,7.23
2023-04-15T15:16:07.242Z,7.73
2023-04-15T15:18:35.790Z,7.20
2023-04-15T15:21:04.264Z,8.07
2023-04-15T15:23:32.882Z,7.20
2023-04-15T15:26:02.711Z,6.70
2023-04-15T15:28:31.082Z,6.93
2023-04-15T15:30:59.289Z,7.17
2023-04-15T15:33:29.015Z,6.80
2023-04-15T15:35:59.183Z,8.10
2023-04-15T15:38:27.568Z,7.00
2023-04-15T15:40:56.054Z,6.30
2023-04-15T15:43:25.828Z,7.10
2023-04-15T15:45:55.682Z,7.10
2023-04-15T15:48:24.355Z,7.13
2023-04-15T15:50:53.598Z,7.23
2023-04-15T15:53:24.313Z,7.80
2023-04-15T15:55:53.837Z,7.30
2023-04-15T15:58:22.803Z,8.03
2023-04-15T16:00:52.411Z,8.13
2023-04-15T16:03:21.057Z,7.37
2023-04-15T16:05:49.647Z,7.07
2023-04-15T16:08:18.457Z,8.07
2023-04-15T16:10:46.866Z,8.50
2023-04-15T16:13:15.275Z,10.00
2023-04-15T16:15:43.290Z,7.90
2023-04-15T16:18:15.353Z,8.87
2023-04-15T16:20:44.017Z,8.63
2023-04-15T16:23:14.428Z,8.27
2023-04-15T16:25:43.583Z,7.10
2023-04-15T16:28:23.036Z,7.90
2023-04-15T16:30:54.724Z,9.93
2023-04-15T16:33:24.660Z,8.70
2023-04-15T16:35:53.101Z,7.53
2023-04-15T16:38:21.582Z,10.83
2023-04-15T16:40:49.957Z,7.63
2023-04-15T16:43:18.151Z,7.33
2023-04-15T16:45:50.929Z,7.83
2023-04-15T16:48:20.594Z,8.37
2023-04-15T16:50:50.355Z,7.67
2023-04-15T16:53:18.775Z,8.47
2023-04-15T16:55:47.176Z,8.60
2023-04-15T16:58:15.875Z,9.00
2023-04-15T17:00:44.453Z,8.63
2023-04-15T17:03:13.098Z,9.37
2023-04-15T17:05:42.353Z,8.73
2023-04-15T17:08:12.252Z,8.37
2023-04-15T17:10:40.745Z,8.97
2023-04-15T17:13:09.140Z,10.67
2023-04-15T17:15:37.733Z,9.70
2023-04-15T17:18:06.501Z,9.47
2023-04-15T17:20:34.916Z,10.23
2023-04-15T17:23:03.498Z,12.30
2023-04-15T17:25:33.576Z,13.87
2023-04-15T17:28:02.563Z,18.03
2023-04-15T17:30:31.184Z,12.43
2023-04-15T17:32:59.554Z,13.27
2023-04-15T17:35:27.923Z,11.80
2023-04-15T17:37:56.303Z,15.77
2023-04-15T17:40:24.822Z,10.23
2023-04-15T17:42:54.634Z,9.93
2023-04-15T17:45:23.048Z,12.80
2023-04-15T17:47:51.625Z,12.20
2023-04-15T17:50:20.268Z,11.37
2023-04-15T17:52:48.822Z,11.03
2023-04-15T17:55:17.494Z,14.50
2023-04-15T17:57:47.128Z,11.77
2023-04-15T18:00:18.500Z,16.33
2023-04-15T18:02:48.701Z,15.23
2023-04-15T18:05:18.853Z,12.37
2023-04-15T18:07:47.506Z,10.80
2023-04-15T18:10:16.222Z,14.13
2023-04-15T18:12:44.762Z,12.13
2023-04-15T18:15:14.610Z,13.63
2023-04-15T18:17:44.128Z,13.60
2023-04-15T18:20:13.392Z,13.83
2023-04-15T18:22:42.315Z,15.73
2023-04-15T18:25:11.394Z,13.20
2023-04-15T18:27:40.266Z,15.57
2023-04-15T18:30:09.697Z,11.00
2023-04-15T18:32:38.288Z,13.70
2023-04-15T18:35:08.915Z,11.63
2023-04-15T18:37:37.425Z,15.37
2023-04-15T18:40:06.154Z,15.27
2023-04-15T18:42:34.507Z,17.23
2023-04-15T18:45:02.880Z,15.67
2023-04-15T18:47:31.619Z,17.10
2023-04-15T18:49:59.962Z,19.47
2023-04-15T18:52:29.811Z,17.40
2023-04-15T18:54:58.192Z,13.63
2023-04-15T18:57:32.740Z,15.80
2023-04-15T19:00:05.065Z,17.77
2023-04-15T19:02:33.523Z,17.20
2023-04-15T19:05:04.212Z,14.30
2023-04-15T19:07:33.832Z,13.40
2023-04-15T19:10:01.966Z,19.03
2023-04-15T19:12:30.444Z,17.40
2023-04-15T19:14:59.190Z,21.77
2023-04-15T19:17:27.746Z,19.33
2023-04-15T19:19:56.221Z,12.67
2023-04-15T19:22:24.567Z,16.23
2023-04-15T19:24:54.144Z,17.50
2023-04-15T19:27:22.573Z,20.57
2023-04-15T19:29:50.937Z,17.73
2023-04-15T19:32:19.105Z,20.87
2023-04-15T19:34:47.799Z,23.33
2023-04-15T19:37:16.368Z,19.43
2023-04-15T19:39:44.867Z,24.80
2023-04-15T19:42:14.604Z,20.80
2023-04-15T19:44:42.971Z,18.80
2023-04-15T19:47:11.507Z,20.33
2023-04-15T19:49:39.976Z,25.20
2023-04-15T19:52:08.344Z,22.07
2023-04-15T19:54:37.016Z,25.30
2023-04-15T19:57:05.470Z,28.67
2023-04-15T19:59:35.005Z,25.17
2023-04-15T20:02:03.613Z,28.90
2023-04-15T20:04:32.280Z,27.77
2023-04-15T20:07:01.102Z,21.53
2023-04-15T20:09:29.487Z,25.47
2023-04-15T20:12:47.887Z,27.27
2023-04-15T20:14:47.195Z,28.30
2023-04-15T20:17:16.640Z,25.17
2023-04-15T20:19:45.339Z,23.67
2023-04-15T20:22:13.943Z,30.40
2023-04-15T20:24:42.389Z,31.47
2023-04-15T20:27:10.969Z,24.17
2023-04-15T20:29:39.415Z,29.23
2023-04-15T20:32:11.462Z,26.03
2023-04-15T20:34:41.299Z,32.37
2023-04-15T20:37:09.859Z,34.17
2023-04-15T20:39:38.251Z,28.63
2023-04-15T20:42:10.260Z,28.43
2023-04-15T20:44:39.516Z,27.73
2023-04-15T20:47:09.256Z,31.50
2023-04-15T20:49:37.924Z,35.90
2023-04-15T20:52:06.966Z,36.17
2023-04-15T20:54:35.425Z,37.13
2023-04-15T20:57:04.083Z,32.47
2023-04-15T20:59:32.838Z,39.23
2023-04-15T21:02:01.432Z,35.17
2023-04-15T21:04:31.389Z,32.33
2023-04-15T21:06:59.745Z,30.47
2023-04-15T21:09:28.115Z,41.47
2023-04-15T21:12:01.746Z,37.33
2023-04-15T21:14:30.955Z,36.07
2023-04-15T21:16:59.546Z,33.07
2023-04-15T21:19:27.905Z,38.53
2023-04-15T21:21:57.732Z,33.17
2023-04-15T21:24:26.334Z,37.93
2023-04-15T21:26:54.718Z,39.10
2023-04-15T21:29:23.120Z,33.37
2023-04-15T21:31:51.484Z,35.83
2023-04-15T21:34:19.975Z,36.07
2023-04-15T21:36:48.632Z,33.13
2023-04-15T21:39:18.417Z,45.63
2023-04-15T21:41:46.907Z,41.67
2023-04-15T21:44:15.488Z,35.83
2023-04-15T21:46:46.044Z,35.77
2023-04-15T21:49:14.977Z,37.60
2023-04-15T21:51:43.730Z,38.90
2023-04-15T21:54:12.245Z,40.40
2023-04-15T21:56:42.364Z,34.93
2023-04-15T21:59:10.769Z,41.30
2023-04-15T22:01:39.249Z,41.23
2023-04-15T22:04:07.831Z,45.37
2023-04-15T22:06:36.412Z,38.27
2023-04-15T22:09:04.852Z,35.13
2023-04-15T22:11:33.219Z,39.43
2023-04-15T22:14:02.706Z,41.77
2023-04-15T22:16:31.518Z,45.53
2023-04-15T22:18:59.906Z,38.37
2023-04-15T22:21:28.304Z,37.00
2023-04-15T22:24:35.051Z,39.37
2023-04-15T22:26:45.463Z,35.60
2023-04-15T22:29:15.183Z,44.73
2023-04-15T22:31:43.813Z,40.50
2023-04-15T22:34:14.673Z,47.03
2023-04-15T22:36:42.727Z,40.10
2023-04-15T22:39:11.290Z,39.27
2023-04-15T22:41:39.654Z,39.77
2023-04-15T22:44:08.112Z,39.80
2023-04-15T22:46:38.310Z,41.40
2023-04-15T22:49:09.038Z,42.33
2023-04-15T22:51:38.533Z,43.97
2023-04-15T22:54:06.994Z,38.37
2023-04-15T22:56:35.503Z,40.00
2023-04-15T22:59:03.862Z,41.87
2023-04-15T23:01:32.405Z,43.83
2023-04-15T23:04:05.224Z,44.23
2023-04-15T23:06:35.791Z,47.80
2023-04-15T23:09:04.253Z,50.53
2023-04-15T23:11:33.218Z,48.33
2023-04-15T23:14:01.504Z,39.57
2023-04-15T23:16:30.079Z,42.70
2023-04-15T23:18:58.630Z,44.10
2023-04-15T23:21:29.054Z,41.50
2023-04-15T23:23:57.623Z,48.20
2023-04-15T23:26:27.356Z,46.37
2023-04-15T23:28:55.777Z,43.20
2023-04-15T23:31:24.641Z,43.47
2023-04-15T23:33:52.716Z,38.57
2023-04-15T23:36:21.052Z,46.07
2023-04-15T23:38:50.800Z,42.80
2023-04-15T23:41:19.187Z,49.17
2023-04-15T23:43:47.538Z,52.23
2023-04-15T23:46:16.957Z,39.50
2023-04-15T23:48:47.785Z,49.87
2023-04-15T23:51:16.509Z,48.30
2023-04-15T23:53:44.947Z,47.43
2023-04-15T23:56:15.808Z,50.43
2023-04-15T23:58:44.392Z,54.30
